Time;durP1;ratioP1;P1;durP2;ratioP2;P2;SDS_P1;SDS_P2;PMS_P1;PMS_P2;Temp;Humidity;BMP_temperature;BMP_pressure;BME280_temperature;BME280_humidity;BME280_pressure;Samples;Min_cycle;Max_cycle;Signal;HPM_P1;HPM_P2
2021/10/05 00:02:14;;;;;;;6.30;3.97;;;;;;;;;;5040142;28;20045;-86
2021/10/05 00:04:40;;;;;;;5.55;3.92;;;;;;;;;;5055908;28;20059;-87
2021/10/05 00:07:07;;;;;;;5.40;3.90;;;;;;;;;;5040684;28;20056;-86
2021/10/05 00:09:34;;;;;;;5.57;4.20;;;;;;;;;;5040075;28;20384;-87
2021/10/05 00:12:00;;;;;;;4.82;4.32;;;;;;;;;;5038863;28;20266;-87
2021/10/05 00:14:27;;;;;;;8.75;4.43;;;;;;;;;;5042816;28;20077;-86
2021/10/05 00:16:54;;;;;;;9.27;4.07;;;;;;;;;;5053932;28;20041;-86
2021/10/05 00:19:22;;;;;;;7.10;4.50;;;;;;;;;;5056078;28;20035;-87
2021/10/05 00:21:50;;;;;;;7.60;4.10;;;;;;;;;;5042704;28;20083;-87
2021/10/05 00:24:19;;;;;;;6.03;4.13;;;;;;;;;;5024480;28;20204;-86
2021/10/05 00:26:48;;;;;;;7.65;4.50;;;;;;;;;;5026277;28;20048;-86
2021/10/05 00:29:15;;;;;;;6.38;4.47;;;;;;;;;;5051340;28;20059;-86
2021/10/05 00:31:45;;;;;;;5.90;5.03;;;;;;;;;;5044953;28;20045;-86
2021/10/05 00:34:12;;;;;;;9.20;4.78;;;;;;;;;;5038103;28;20045;-86
2021/10/05 00:36:39;;;;;;;6.93;4.97;;;;;;;;;;5038560;28;20053;-86
2021/10/05 00:39:09;;;;;;;11.00;5.57;;;;;;;;;;5041258;28;20054;-87
2021/10/05 00:41:37;;;;;;;8.20;5.13;;;;;;;;;;5041596;28;20058;-87
2021/10/05 00:44:04;;;;;;;8.45;5.22;;;;;;;;;;5039935;28;20053;-87
2021/10/05 00:46:33;;;;;;;9.48;5.32;;;;;;;;;;5039690;28;20061;-86
2021/10/05 00:49:01;;;;;;;7.80;5.07;;;;;;;;;;5040235;28;20060;-86
2021/10/05 00:51:30;;;;;;;7.57;5.57;;;;;;;;;;5054116;28;20045;-86
2021/10/05 00:53:57;;;;;;;7.75;5.85;;;;;;;;;;5037398;28;20045;-86
2021/10/05 00:56:24;;;;;;;10.13;6.68;;;;;;;;;;5038137;28;20049;-86
2021/10/05 00:58:50;;;;;;;9.35;5.88;;;;;;;;;;5039889;28;20049;-86
2021/10/05 01:01:17;;;;;;;9.07;5.60;;;;;;;;;;5038105;28;20049;-86
2021/10/05 01:03:44;;;;;;;10.60;5.90;;;;;;;;;;5037961;28;20088;-86
2021/10/05 01:06:11;;;;;;;11.27;6.30;;;;;;;;;;5038565;28;20057;-87
2021/10/05 01:08:37;;;;;;;13.98;6.45;;;;;;;;;;5038315;28;20060;-86
2021/10/05 01:11:06;;;;;;;7.88;6.13;;;;;;;;;;5039007;28;20228;-87
2021/10/05 01:13:35;;;;;;;11.05;6.38;;;;;;;;;;5038513;28;20046;-86
2021/10/05 01:16:02;;;;;;;8.50;6.50;;;;;;;;;;5041054;28;20037;-86
2021/10/05 01:18:29;;;;;;;11.18;6.78;;;;;;;;;;5039336;28;20041;-86
2021/10/05 01:20:56;;;;;;;12.02;7.15;;;;;;;;;;5040162;28;20536;-87
2021/10/05 01:23:23;;;;;;;9.32;7.20;;;;;;;;;;5038726;28;20053;-86
2021/10/05 01:25:50;;;;;;;12.73;8.02;;;;;;;;;;5055273;28;20065;-86
2021/10/05 01:28:19;;;;;;;11.85;7.82;;;;;;;;;;5054984;28;20049;-86
2021/10/05 01:30:49;;;;;;;12.95;7.30;;;;;;;;;;5038480;28;20049;-87
2021/10/05 01:33:16;;;;;;;16.02;7.93;;;;;;;;;;5039684;28;20129;-86
2021/10/05 01:35:42;;;;;;;13.95;8.27;;;;;;;;;;5039597;28;20060;-86
2021/10/05 01:38:19;;;;;;;11.10;7.40;;;;;;;;;;5056305;28;20049;-86
2021/10/05 01:40:45;;;;;;;12.98;7.25;;;;;;;;;;5053799;28;20045;-86
2021/10/05 01:43:12;;;;;;;11.40;7.38;;;;;;;;;;5031592;28;20054;-86
2021/10/05 01:45:43;;;;;;;9.20;7.25;;;;;;;;;;5018661;28;20058;-86
2021/10/05 01:48:09;;;;;;;9.60;6.95;;;;;;;;;;5024907;28;20049;-86
2021/10/05 01:50:36;;;;;;;14.05;7.63;;;;;;;;;;5036989;28;20147;-87
2021/10/05 01:53:04;;;;;;;12.32;8.10;;;;;;;;;;5038560;28;20053;-86
2021/10/05 01:55:31;;;;;;;12.60;8.20;;;;;;;;;;5044718;28;20100;-87
2021/10/05 01:57:57;;;;;;;11.55;7.30;;;;;;;;;;5048146;28;20056;-86
2021/10/05 02:00:24;;;;;;;9.93;8.35;;;;;;;;;;5050791;28;20075;-85
2021/10/05 02:02:53;;;;;;;9.70;7.13;;;;;;;;;;5052749;28;20067;-85
2021/10/05 02:05:21;;;;;;;13.40;7.18;;;;;;;;;;5040279;28;20057;-85
2021/10/05 02:07:47;;;;;;;10.13;7.68;;;;;;;;;;5038585;28;20079;-84
2021/10/05 02:10:14;;;;;;;10.13;7.20;;;;;;;;;;5038072;28;20187;-84
2021/10/05 02:12:41;;;;;;;12.55;7.43;;;;;;;;;;5026067;28;20538;-85
2021/10/05 02:15:08;;;;;;;9.55;7.38;;;;;;;;;;5036052;28;20424;-85
2021/10/05 02:17:35;;;;;;;10.77;7.68;;;;;;;;;;5048411;28;20049;-85
2021/10/05 02:20:02;;;;;;;12.95;7.60;;;;;;;;;;5049594;28;20049;-85
2021/10/05 02:22:32;;;;;;;13.05;7.80;;;;;;;;;;5042888;28;20101;-86
2021/10/05 02:24:59;;;;;;;11.80;7.82;;;;;;;;;;5022778;28;20049;-85
2021/10/05 02:27:25;;;;;;;10.32;8.02;;;;;;;;;;5022213;28;20336;-85
2021/10/05 02:29:52;;;;;;;10.93;8.20;;;;;;;;;;5022388;28;20049;-86
2021/10/05 02:32:22;;;;;;;12.43;9.25;;;;;;;;;;5039830;28;20089;-85
2021/10/05 02:34:48;;;;;;;15.05;8.95;;;;;;;;;;5034753;28;20414;-85
2021/10/05 02:37:15;;;;;;;13.35;8.35;;;;;;;;;;5035878;28;20045;-85
2021/10/05 02:39:42;;;;;;;10.48;8.55;;;;;;;;;;5040130;28;20294;-85
2021/10/05 02:42:09;;;;;;;13.05;9.10;;;;;;;;;;5019062;28;20050;-85
2021/10/05 02:44:37;;;;;;;12.02;9.15;;;;;;;;;;5022678;28;20053;-85
2021/10/05 02:47:04;;;;;;;14.88;8.77;;;;;;;;;;5021813;28;20103;-85
2021/10/05 02:49:31;;;;;;;12.98;9.20;;;;;;;;;;5040366;28;20041;-85
2021/10/05 02:51:58;;;;;;;15.00;9.45;;;;;;;;;;5025147;28;20060;-85
2021/10/05 02:54:25;;;;;;;12.35;9.57;;;;;;;;;;5040153;28;20414;-86
2021/10/05 02:56:55;;;;;;;15.25;10.85;;;;;;;;;;5039819;28;20052;-86
2021/10/05 02:59:22;;;;;;;13.63;10.95;;;;;;;;;;5039047;28;20396;-86
2021/10/05 03:01:49;;;;;;;15.38;9.82;;;;;;;;;;5022534;28;20057;-86
2021/10/05 03:04:19;;;;;;;14.45;10.77;;;;;;;;;;5038398;28;20062;-86
2021/10/05 03:06:45;;;;;;;17.65;10.30;;;;;;;;;;5017597;28;20041;-85
2021/10/05 03:09:12;;;;;;;14.73;10.45;;;;;;;;;;5038113;28;20041;-86
2021/10/05 03:11:39;;;;;;;15.70;9.93;;;;;;;;;;5006808;28;20144;-86
2021/10/05 03:14:05;;;;;;;13.27;9.93;;;;;;;;;;5032348;28;20585;-85
2021/10/05 03:16:35;;;;;;;17.33;10.07;;;;;;;;;;5039180;28;20045;-86
2021/10/05 03:19:02;;;;;;;15.80;10.10;;;;;;;;;;5023184;28;20060;-87
2021/10/05 03:21:28;;;;;;;17.40;10.68;;;;;;;;;;5040739;28;20045;-87
2021/10/05 03:23:55;;;;;;;16.10;10.98;;;;;;;;;;5037828;28;20093;-86
2021/10/05 03:26:22;;;;;;;15.30;10.75;;;;;;;;;;5042465;28;20397;-86
2021/10/05 03:28:49;;;;;;;13.77;10.75;;;;;;;;;;5038831;28;20057;-86
2021/10/05 03:31:15;;;;;;;15.63;10.20;;;;;;;;;;5040539;28;20459;-85
2021/10/05 03:33:43;;;;;;;15.40;11.48;;;;;;;;;;5041386;28;20061;-85
2021/10/05 03:36:11;;;;;;;17.38;11.40;;;;;;;;;;5050132;28;20053;-85
2021/10/05 03:38:38;;;;;;;15.05;11.27;;;;;;;;;;5053414;28;20041;-84
2021/10/05 03:41:05;;;;;;;14.98;10.88;;;;;;;;;;5047875;28;20056;-86
2021/10/05 03:43:33;;;;;;;16.08;9.95;;;;;;;;;;5039197;28;20060;-86
2021/10/05 03:46:12;;;;;;;16.02;10.30;;;;;;;;;;5040294;28;20057;-87
2021/10/05 03:48:39;;;;;;;13.70;9.93;;;;;;;;;;5050167;28;20097;-86
2021/10/05 03:51:08;;;;;;;13.73;9.95;;;;;;;;;;5054029;28;20150;-87
2021/10/05 03:53:35;;;;;;;15.23;10.57;;;;;;;;;;5038319;28;20115;-87
2021/10/05 03:56:02;;;;;;;13.35;10.75;;;;;;;;;;5039640;28;20046;-87
2021/10/05 03:58:29;;;;;;;16.05;9.60;;;;;;;;;;5043415;28;20052;-87
2021/10/05 04:00:56;;;;;;;15.95;10.48;;;;;;;;;;5027073;28;20057;-87
2021/10/05 04:03:26;;;;;;;13.70;10.52;;;;;;;;;;5043362;28;20085;-86
2021/10/05 04:05:53;;;;;;;16.33;10.23;;;;;;;;;;5042915;28;20138;-86
2021/10/05 04:08:21;;;;;;;14.52;10.88;;;;;;;;;;5039596;28;20042;-86
2021/10/05 04:10:48;;;;;;;18.05;10.95;;;;;;;;;;5035853;28;20072;-87
2021/10/05 04:13:16;;;;;;;14.05;10.55;;;;;;;;;;5035427;28;20368;-86
2021/10/05 04:15:46;;;;;;;15.27;11.25;;;;;;;;;;5035952;28;20132;-87
2021/10/05 04:18:13;;;;;;;21.08;11.52;;;;;;;;;;5036303;28;20057;-86
2021/10/05 04:20:41;;;;;;;17.90;10.15;;;;;;;;;;5038702;28;20060;-85
2021/10/05 04:23:08;;;;;;;17.95;11.13;;;;;;;;;;5035560;28;20049;-86
2021/10/05 04:26:03;;;;;;;16.58;10.63;;;;;;;;;;5036224;28;20061;-86
2021/10/05 04:28:30;;;;;;;16.02;11.52;;;;;;;;;;5034609;28;20045;-86
2021/10/05 04:30:57;;;;;;;14.15;9.98;;;;;;;;;;5035916;28;20052;-87
2021/10/05 04:33:23;;;;;;;17.60;10.23;;;;;;;;;;5032587;28;20053;-87
2021/10/05 04:35:58;;;;;;;15.68;10.88;;;;;;;;;;5035776;28;20067;-87
2021/10/05 04:38:30;;;;;;;17.23;10.87;;;;;;;;;;5037486;28;20440;-86
2021/10/05 04:40:57;;;;;;;15.32;11.63;;;;;;;;;;5036994;28;20119;-86
2021/10/05 04:43:29;;;;;;;15.32;10.45;;;;;;;;;;5036041;28;20041;-87
2021/10/05 04:45:59;;;;;;;16.45;11.45;;;;;;;;;;5034932;28;20054;-87
2021/10/05 04:48:26;;;;;;;15.98;11.57;;;;;;;;;;5034736;28;20064;-86
2021/10/05 04:50:53;;;;;;;17.30;10.95;;;;;;;;;;5033539;28;20049;-86
2021/10/05 04:53:23;;;;;;;16.63;10.82;;;;;;;;;;5030857;28;20065;-87
2021/10/05 04:55:51;;;;;;;16.58;11.32;;;;;;;;;;5033182;28;20140;-87
2021/10/05 04:58:18;;;;;;;18.00;11.75;;;;;;;;;;5035147;28;20049;-86
2021/10/05 05:00:45;;;;;;;15.82;11.18;;;;;;;;;;5034738;28;20065;-86
2021/10/05 05:03:12;;;;;;;16.40;11.07;;;;;;;;;;5046235;28;20104;-84
2021/10/05 05:05:39;;;;;;;15.45;10.52;;;;;;;;;;5045943;28;20064;-88
2021/10/05 05:08:05;;;;;;;15.95;11.23;;;;;;;;;;5036338;28;20063;-85
2021/10/05 05:10:54;;;;;;;20.52;11.73;;;;;;;;;;5036734;28;20084;-86
2021/10/05 05:13:23;;;;;;;20.92;12.43;;;;;;;;;;5044345;28;20120;-85
2021/10/05 05:15:50;;;;;;;16.52;11.85;;;;;;;;;;5040996;28;20060;-85
2021/10/05 05:18:18;;;;;;;15.68;12.35;;;;;;;;;;5040528;28;20034;-85
2021/10/05 05:20:51;;;;;;;16.25;12.27;;;;;;;;;;5039374;28;20059;-85
2021/10/05 05:23:17;;;;;;;19.75;12.82;;;;;;;;;;5058489;28;20053;-86
2021/10/05 05:25:45;;;;;;;21.05;13.60;;;;;;;;;;5048728;28;20076;-86
2021/10/05 05:28:20;;;;;;;15.52;11.65;;;;;;;;;;5030720;28;20060;-86
2021/10/05 05:30:50;;;;;;;16.23;12.15;;;;;;;;;;5029819;28;20041;-85
2021/10/05 05:33:19;;;;;;;20.38;13.02;;;;;;;;;;5029719;28;20275;-86
2021/10/05 05:35:47;;;;;;;18.17;12.02;;;;;;;;;;5032271;28;20263;-86
2021/10/05 05:38:21;;;;;;;20.02;13.15;;;;;;;;;;5032027;28;20113;-85
2021/10/05 05:40:58;;;;;;;19.95;12.48;;;;;;;;;;5030275;28;20060;-87
2021/10/05 05:43:28;;;;;;;17.40;12.65;;;;;;;;;;5029480;28;20226;-85
2021/10/05 05:45:55;;;;;;;16.95;12.27;;;;;;;;;;5032868;28;20076;-86
2021/10/05 05:48:28;;;;;;;18.90;11.45;;;;;;;;;;5035516;28;20145;-86
2021/10/05 05:51:04;;;;;;;13.55;10.77;;;;;;;;;;5049414;28;20053;-86
2021/10/05 05:53:34;;;;;;;14.38;10.60;;;;;;;;;;5024487;28;20502;-86
2021/10/05 05:56:03;;;;;;;19.65;12.02;;;;;;;;;;5014677;28;20334;-86
2021/10/05 05:58:33;;;;;;;18.35;11.18;;;;;;;;;;5019588;28;20130;-86
2021/10/05 06:01:00;;;;;;;16.92;10.98;;;;;;;;;;5021932;28;20049;-86
2021/10/05 06:03:37;;;;;;;17.67;12.10;;;;;;;;;;5021418;28;20202;-87
2021/10/05 06:06:18;;;;;;;16.23;10.63;;;;;;;;;;5010349;28;20050;-85
2021/10/05 06:08:45;;;;;;;15.63;10.68;;;;;;;;;;5023010;28;20069;-86
2021/10/05 06:11:28;;;;;;;16.35;11.32;;;;;;;;;;5013778;28;20051;-85
2021/10/05 06:13:55;;;;;;;15.07;11.13;;;;;;;;;;5022833;28;20481;-87
2021/10/05 06:16:31;;;;;;;14.20;10.38;;;;;;;;;;5026258;28;20143;-87
2021/10/05 06:18:59;;;;;;;16.45;10.27;;;;;;;;;;5019500;28;20057;-87
2021/10/05 06:25:10;;;;;;;15.30;10.70;;;;;;;;;;4688326;27;12100620;-86
2021/10/05 06:28:01;;;;;;;13.23;9.68;;;;;;;;;;5101880;28;20281;-86
2021/10/05 06:31:16;;;;;;;15.50;9.70;;;;;;;;;;5101115;28;20061;-87
2021/10/05 06:34:05;;;;;;;16.02;9.50;;;;;;;;;;5101288;28;20128;-86
2021/10/05 06:37:01;;;;;;;12.38;9.93;;;;;;;;;;5105413;28;20059;-86
2021/10/05 06:40:07;;;;;;;12.68;9.20;;;;;;;;;;5110294;28;20051;-86
2021/10/05 06:43:24;;;;;;;12.70;8.98;;;;;;;;;;5105700;28;20148;-86
2021/10/05 06:46:06;;;;;;;15.65;9.93;;;;;;;;;;5105095;28;20083;-85
2021/10/05 06:48:38;;;;;;;15.88;9.07;;;;;;;;;;5108040;28;20277;-85
2021/10/05 06:51:45;;;;;;;12.75;9.00;;;;;;;;;;5104593;28;20373;-86
2021/10/05 06:54:43;;;;;;;13.73;9.43;;;;;;;;;;5100531;28;20292;-86
2021/10/05 06:57:48;;;;;;;18.73;9.65;;;;;;;;;;5098713;28;20092;-86
2021/10/05 07:00:24;;;;;;;11.52;9.65;;;;;;;;;;5117220;28;20078;-86
2021/10/05 07:03:08;;;;;;;12.70;9.50;;;;;;;;;;5110352;28;20052;-85
2021/10/05 07:05:51;;;;;;;13.57;9.15;;;;;;;;;;5102587;28;20044;-85
2021/10/05 07:08:49;;;;;;;11.48;9.00;;;;;;;;;;5098198;28;20052;-86
2021/10/05 07:14:17;;;;;;;11.77;8.88;;;;;;;;;;5121672;28;20048;-87
2021/10/05 07:17:05;;;;;;;14.48;9.07;;;;;;;;;;5118425;28;20119;-86
2021/10/05 07:20:05;;;;;;;14.23;9.38;;;;;;;;;;5109892;28;20279;-85
2021/10/05 07:23:15;;;;;;;12.25;8.95;;;;;;;;;;5102185;28;20040;-86
2021/10/05 07:26:06;;;;;;;11.75;9.25;;;;;;;;;;5102436;28;20054;-86
2021/10/05 07:28:44;;;;;;;16.38;9.02;;;;;;;;;;5104943;28;20183;-87
2021/10/05 07:31:22;;;;;;;11.38;8.48;;;;;;;;;;5103461;28;20073;-87
2021/10/05 07:34:30;;;;;;;12.98;8.65;;;;;;;;;;5108646;28;20160;-86
2021/10/05 07:37:19;;;;;;;12.65;8.50;;;;;;;;;;5093360;28;20072;-85
2021/10/05 07:39:54;;;;;;;11.40;8.40;;;;;;;;;;5087097;28;20275;-86
2021/10/05 07:42:54;;;;;;;12.18;9.13;;;;;;;;;;5088567;28;20122;-86
2021/10/05 07:45:51;;;;;;;13.90;7.85;;;;;;;;;;5086593;28;20052;-86
2021/10/05 07:48:30;;;;;;;12.70;8.05;;;;;;;;;;5092305;28;20044;-86
2021/10/05 07:51:05;;;;;;;15.55;9.00;;;;;;;;;;5074648;28;20068;-85
2021/10/05 07:53:42;;;;;;;16.45;8.52;;;;;;;;;;5073837;28;20135;-85
2021/10/05 07:56:18;;;;;;;13.05;8.85;;;;;;;;;;5074032;28;20055;-85
2021/10/05 07:59:05;;;;;;;12.65;8.57;;;;;;;;;;5072271;28;20080;-86
2021/10/05 08:01:49;;;;;;;11.90;8.27;;;;;;;;;;5081438;28;20074;-86
2021/10/05 08:04:53;;;;;;;11.18;7.95;;;;;;;;;;5042981;28;20060;-85
2021/10/05 08:07:26;;;;;;;11.65;8.43;;;;;;;;;;5330824;22;20044;-85
2021/10/05 08:09:57;;;;;;;12.07;8.35;;;;;;;;;;5097625;28;20181;-85
2021/10/05 08:12:33;;;;;;;13.00;9.02;;;;;;;;;;5093245;28;20051;-85
2021/10/05 08:15:10;;;;;;;10.80;8.23;;;;;;;;;;5074718;28;20048;-85
2021/10/05 08:17:50;;;;;;;;;;;;;;;;;;5065363;28;20135;-85
2021/10/05 08:20:34;;;;;;;12.93;8.27;;;;;;;;;;5077631;28;20112;-86
2021/10/05 08:23:06;;;;;;;11.48;8.05;;;;;;;;;;5073227;28;20071;-86
2021/10/05 08:25:37;;;;;;;10.20;7.82;;;;;;;;;;5073002;28;20048;-86
2021/10/05 08:28:12;;;;;;;11.10;8.48;;;;;;;;;;5073161;28;20212;-86
2021/10/05 08:30:48;;;;;;;9.95;7.78;;;;;;;;;;5053653;28;20060;-85
2021/10/05 08:33:19;;;;;;;11.50;8.07;;;;;;;;;;5050612;28;20049;-85
2021/10/05 08:35:45;;;;;;;10.35;7.75;;;;;;;;;;5049236;28;20226;-85
2021/10/05 08:38:31;;;;;;;10.95;7.65;;;;;;;;;;5051948;28;20210;-86
2021/10/05 08:41:04;;;;;;;9.70;6.82;;;;;;;;;;5070449;28;20044;-85
2021/10/05 08:43:41;;;;;;;10.38;7.43;;;;;;;;;;5085622;28;20389;-86
2021/10/05 08:46:10;;;;;;;12.10;7.43;;;;;;;;;;5052153;28;20056;-84
2021/10/05 08:48:46;;;;;;;9.63;6.95;;;;;;;;;;5049411;28;20044;-85
2021/10/05 08:51:17;;;;;;;15.15;7.32;;;;;;;;;;5066070;28;20085;-85
2021/10/05 08:53:46;;;;;;;10.13;7.60;;;;;;;;;;5049722;28;20115;-85
2021/10/05 08:56:18;;;;;;;12.32;7.85;;;;;;;;;;5051614;28;20067;-85
2021/10/05 08:58:52;;;;;;;10.02;6.65;;;;;;;;;;5049615;28;20091;-84
2021/10/05 09:01:19;;;;;;;10.63;6.35;;;;;;;;;;5051724;28;20048;-85
2021/10/05 09:03:53;;;;;;;9.35;6.28;;;;;;;;;;5054155;28;20079;-85
2021/10/05 09:06:21;;;;;;;8.40;6.35;;;;;;;;;;5060516;28;20555;-85
2021/10/05 09:08:48;;;;;;;11.32;6.10;;;;;;;;;;5070203;28;20385;-85
2021/10/05 09:11:26;;;;;;;9.50;5.57;;;;;;;;;;5073452;28;20428;-84
2021/10/05 09:13:54;;;;;;;7.30;5.43;;;;;;;;;;5084666;28;20087;-85
2021/10/05 09:16:22;;;;;;;11.40;6.25;;;;;;;;;;5085249;28;20048;-84
2021/10/05 09:18:54;;;;;;;7.05;5.50;;;;;;;;;;5069578;28;20245;-85
2021/10/05 09:21:21;;;;;;;7.28;5.28;;;;;;;;;;5088386;28;20043;-84
2021/10/05 09:23:55;;;;;;;10.88;5.75;;;;;;;;;;5069850;28;20416;-84
2021/10/05 09:26:43;;;;;;;9.23;5.72;;;;;;;;;;5085846;28;20213;-85
2021/10/05 09:29:11;;;;;;;7.60;5.07;;;;;;;;;;5068737;28;20059;-85
2021/10/05 09:31:47;;;;;;;5.78;4.55;;;;;;;;;;5054956;28;20106;-85
2021/10/05 09:34:18;;;;;;;6.90;5.47;;;;;;;;;;5057013;28;20048;-85
2021/10/05 09:36:47;;;;;;;8.35;5.35;;;;;;;;;;5068273;28;20486;-85
2021/10/05 09:39:23;;;;;;;6.22;4.80;;;;;;;;;;5081014;28;20131;-85
2021/10/05 09:42:01;;;;;;;7.18;4.45;;;;;;;;;;5069786;28;20110;-85
2021/10/05 09:44:28;;;;;;;;;;;;;;;;;;5085655;28;20072;-85
2021/10/05 09:46:55;;;;;;;6.68;4.53;;;;;;;;;;5112029;28;20192;-85
2021/10/05 09:49:25;;;;;;;6.75;4.20;;;;;;;;;;5071338;28;20048;-86
2021/10/05 09:52:01;;;;;;;10.85;4.32;;;;;;;;;;5065943;28;20044;-85
2021/10/05 09:54:31;;;;;;;7.50;4.43;;;;;;;;;;5072747;28;20051;-85
2021/10/05 09:57:04;;;;;;;5.93;4.07;;;;;;;;;;5092625;28;20044;-85
2021/10/05 09:59:38;;;;;;;9.27;5.25;;;;;;;;;;5083709;28;20267;-84
2021/10/05 10:02:05;;;;;;;6.72;4.63;;;;;;;;;;5086476;28;20051;-85
2021/10/05 10:04:38;;;;;;;8.00;4.10;;;;;;;;;;5090542;28;20062;-86
2021/10/05 10:07:22;;;;;;;6.70;3.60;;;;;;;;;;5078836;28;20201;-85
2021/10/05 10:09:51;;;;;;;7.32;3.83;;;;;;;;;;5068082;28;20043;-85
2021/10/05 10:12:17;;;;;;;7.15;3.90;;;;;;;;;;5058085;28;20074;-85
2021/10/05 10:14:49;;;;;;;5.00;3.50;;;;;;;;;;5048623;28;20115;-85
2021/10/05 10:17:43;;;;;;;4.63;3.70;;;;;;;;;;5069195;28;20062;-86
2021/10/05 10:20:38;;;;;;;3.78;3.00;;;;;;;;;;5063891;28;20041;-84
2021/10/05 10:23:18;;;;;;;6.13;3.20;;;;;;;;;;5065471;28;20113;-85
2021/10/05 10:25:55;;;;;;;4.47;3.08;;;;;;;;;;5048023;28;20044;-85
2021/10/05 10:28:38;;;;;;;4.50;3.50;;;;;;;;;;5059888;28;20288;-85
2021/10/05 10:31:06;;;;;;;3.88;2.80;;;;;;;;;;5079997;28;20037;-85
2021/10/05 10:36:42;;;;;;;4.40;2.78;;;;;;;;;;5067876;28;20126;-86
2021/10/05 10:39:23;;;;;;;5.75;3.00;;;;;;;;;;5051160;28;20048;-85
2021/10/05 10:41:55;;;;;;;4.00;2.70;;;;;;;;;;5048404;28;20277;-85
2021/10/05 10:44:41;;;;;;;3.38;2.40;;;;;;;;;;5070666;28;20044;-86
2021/10/05 10:47:16;;;;;;;4.18;2.38;;;;;;;;;;5084650;28;20054;-85
2021/10/05 10:50:18;;;;;;;3.30;2.17;;;;;;;;;;5074056;28;20223;-85
2021/10/05 10:52:49;;;;;;;4.55;2.55;;;;;;;;;;4983680;28;20188;-85
2021/10/05 10:55:31;;;;;;;5.35;2.10;;;;;;;;;;5086050;28;20113;-86
2021/10/05 10:58:01;;;;;;;3.30;1.90;;;;;;;;;;5066982;28;20253;-84
2021/10/05 11:00:49;;;;;;;3.83;2.20;;;;;;;;;;5072296;28;20048;-84
2021/10/05 11:03:43;;;;;;;3.15;2.03;;;;;;;;;;5071775;28;20138;-86
2021/10/05 11:06:23;;;;;;;4.00;1.80;;;;;;;;;;5075580;28;20176;-85
2021/10/05 11:09:00;;;;;;;2.70;1.50;;;;;;;;;;5096519;28;20050;-86
2021/10/05 11:11:46;;;;;;;5.53;2.38;;;;;;;;;;5071680;28;20056;-86
2021/10/05 11:14:18;;;;;;;2.30;1.80;;;;;;;;;;5063262;28;20086;-85
2021/10/05 11:16:52;;;;;;;4.28;1.85;;;;;;;;;;5083924;28;20139;-85
2021/10/05 11:19:21;;;;;;;3.35;2.10;;;;;;;;;;5072716;28;20368;-84
2021/10/05 11:21:54;;;;;;;2.95;1.95;;;;;;;;;;5090721;28;20167;-85
2021/10/05 11:24:23;;;;;;;5.13;1.98;;;;;;;;;;5072433;28;20067;-85
2021/10/05 11:26:53;;;;;;;3.30;1.88;;;;;;;;;;5088626;28;20142;-85
2021/10/05 11:29:23;;;;;;;3.05;1.60;;;;;;;;;;5054054;28;20053;-85
2021/10/05 11:31:54;;;;;;;1.75;1.38;;;;;;;;;;5052272;28;20118;-85
2021/10/05 11:34:29;;;;;;;3.20;1.70;;;;;;;;;;5052156;28;20322;-85
2021/10/05 11:37:02;;;;;;;4.00;1.63;;;;;;;;;;5073285;28;20049;-84
2021/10/05 11:39:37;;;;;;;3.75;1.70;;;;;;;;;;5055500;28;20228;-83
2021/10/05 11:42:12;;;;;;;1.90;1.38;;;;;;;;;;5071102;28;20116;-85
2021/10/05 11:44:41;;;;;;;2.33;1.63;;;;;;;;;;5053835;28;20177;-84
2021/10/05 11:47:09;;;;;;;2.83;1.30;;;;;;;;;;5073885;28;20059;-85
2021/10/05 11:49:41;;;;;;;1.83;1.30;;;;;;;;;;5072194;28;20048;-84
2021/10/05 11:52:15;;;;;;;1.90;1.20;;;;;;;;;;5077631;28;20197;-85
2021/10/05 11:54:42;;;;;;;3.22;1.15;;;;;;;;;;5053260;28;20056;-85
2021/10/05 11:57:15;;;;;;;3.15;1.35;;;;;;;;;;5055705;28;20044;-84
2021/10/05 11:59:51;;;;;;;3.00;1.42;;;;;;;;;;5062679;28;20046;-86
2021/10/05 12:02:23;;;;;;;2.60;1.35;;;;;;;;;;5053818;28;20281;-84
2021/10/05 12:05:01;;;;;;;1.70;1.20;;;;;;;;;;5068371;28;20183;-85
2021/10/05 12:07:37;;;;;;;2.60;1.40;;;;;;;;;;5083471;28;20162;-85
2021/10/05 12:10:08;;;;;;;2.47;1.27;;;;;;;;;;5053373;28;20055;-85
2021/10/05 12:12:39;;;;;;;2.00;1.30;;;;;;;;;;5062438;28;20049;-85
2021/10/05 12:15:20;;;;;;;1.77;1.10;;;;;;;;;;5068362;28;20181;-83
2021/10/05 12:18:08;;;;;;;2.33;1.40;;;;;;;;;;5056060;28;20124;-85
2021/10/05 12:21:06;;;;;;;3.83;1.40;;;;;;;;;;5069246;28;20237;-84
2021/10/05 12:23:33;;;;;;;2.30;1.30;;;;;;;;;;5067834;28;20079;-84
2021/10/05 12:26:14;;;;;;;1.92;1.27;;;;;;;;;;5082677;28;20276;-84
2021/10/05 12:28:55;;;;;;;1.63;0.95;;;;;;;;;;5084355;28;20104;-84
2021/10/05 12:31:31;;;;;;;2.75;1.10;;;;;;;;;;5081717;28;20086;-85
2021/10/05 12:33:59;;;;;;;1.92;1.20;;;;;;;;;;5083424;28;20097;-85
2021/10/05 12:36:29;;;;;;;1.40;1.02;;;;;;;;;;5069712;28;20051;-84
2021/10/05 12:39:12;;;;;;;1.77;1.30;;;;;;;;;;5079641;28;20606;-84
2021/10/05 12:41:41;;;;;;;1.38;1.02;;;;;;;;;;5065148;28;20435;-84
2021/10/05 12:44:16;;;;;;;1.10;1.00;;;;;;;;;;5070246;28;20227;-85
2021/10/05 12:46:54;;;;;;;1.13;1.02;;;;;;;;;;5063680;28;20044;-85
2021/10/05 12:49:24;;;;;;;2.20;1.08;;;;;;;;;;5072899;28;20331;-84
2021/10/05 12:51:51;;;;;;;0.90;0.80;;;;;;;;;;5074095;28;20127;-85
2021/10/05 12:54:21;;;;;;;1.73;1.20;;;;;;;;;;5073150;28;20052;-84
2021/10/05 12:56:53;;;;;;;2.20;0.98;;;;;;;;;;5070679;28;20052;-85
2021/10/05 12:59:20;;;;;;;3.63;1.20;;;;;;;;;;5067053;28;20044;-85
2021/10/05 13:01:49;;;;;;;1.67;1.23;;;;;;;;;;5072003;28;20150;-85
2021/10/05 13:04:16;;;;;;;1.33;0.70;;;;;;;;;;5067726;28;20104;-85
2021/10/05 13:06:47;;;;;;;2.08;0.90;;;;;;;;;;5061717;28;20541;-85
2021/10/05 13:09:15;;;;;;;3.33;0.82;;;;;;;;;;5049814;28;20204;-85
2021/10/05 13:11:45;;;;;;;5.20;1.00;;;;;;;;;;5047856;28;20048;-84
2021/10/05 13:14:20;;;;;;;1.08;0.80;;;;;;;;;;5048963;28;20393;-84
2021/10/05 13:16:49;;;;;;;2.72;1.08;;;;;;;;;;5049061;28;20041;-86
2021/10/05 13:19:16;;;;;;;0.90;0.80;;;;;;;;;;5059378;28;20596;-84
2021/10/05 13:21:43;;;;;;;3.50;0.70;;;;;;;;;;5049693;28;20091;-84
2021/10/05 13:24:15;;;;;;;1.20;0.85;;;;;;;;;;5073331;28;20044;-84
2021/10/05 13:26:44;;;;;;;2.03;0.80;;;;;;;;;;5071351;28;20045;-84
2021/10/05 13:29:11;;;;;;;1.27;0.90;;;;;;;;;;5067810;28;20052;-83
2021/10/05 13:31:38;;;;;;;1.85;0.95;;;;;;;;;;5068213;28;20048;-83
2021/10/05 13:34:11;;;;;;;1.02;0.75;;;;;;;;;;5062108;28;20080;-83
2021/10/05 13:36:39;;;;;;;2.28;0.80;;;;;;;;;;5061798;28;20461;-84
2021/10/05 13:39:12;;;;;;;3.95;0.80;;;;;;;;;;5078785;28;20036;-84
2021/10/05 13:41:39;;;;;;;1.88;0.80;;;;;;;;;;5068808;28;20104;-84
2021/10/05 13:44:06;;;;;;;2.00;0.98;;;;;;;;;;5074831;28;20067;-84
2021/10/05 13:46:37;;;;;;;3.17;0.90;;;;;;;;;;5072010;28;20067;-85
2021/10/05 13:49:13;;;;;;;3.10;1.05;;;;;;;;;;5070590;28;20056;-84
2021/10/05 13:51:42;;;;;;;4.03;0.90;;;;;;;;;;5079411;28;20079;-84
2021/10/05 13:54:14;;;;;;;0.95;0.60;;;;;;;;;;5080175;28;20138;-85
2021/10/05 13:56:44;;;;;;;1.80;0.88;;;;;;;;;;5064760;28;20335;-84
2021/10/05 13:59:11;;;;;;;1.42;0.85;;;;;;;;;;5060766;28;20052;-85
2021/10/05 14:01:38;;;;;;;2.83;0.73;;;;;;;;;;5083506;28;20048;-84
2021/10/05 14:04:05;;;;;;;0.93;0.50;;;;;;;;;;5086056;28;20112;-83
2021/10/05 14:06:32;;;;;;;3.85;0.43;;;;;;;;;;5063170;28;20429;-84
2021/10/05 14:08:59;;;;;;;0.47;0.40;;;;;;;;;;5064560;28;20171;-84
2021/10/05 14:11:27;;;;;;;1.00;0.50;;;;;;;;;;5072919;28;20036;-84
2021/10/05 14:14:23;;;;;;;1.42;0.70;;;;;;;;;;5093343;28;20052;-83
2021/10/05 14:16:52;;;;;;;1.08;0.68;;;;;;;;;;5076189;28;20302;-84
2021/10/05 14:19:19;;;;;;;5.22;0.70;;;;;;;;;;5059962;28;20093;-84
2021/10/05 14:21:46;;;;;;;2.72;0.55;;;;;;;;;;5065233;28;20397;-83
2021/10/05 14:24:16;;;;;;;6.68;0.80;;;;;;;;;;5078292;28;20048;-84
2021/10/05 14:26:48;;;;;;;1.88;0.70;;;;;;;;;;5077029;28;20040;-84
2021/10/05 14:29:15;;;;;;;0.80;0.50;;;;;;;;;;5063921;28;20254;-83
2021/10/05 14:31:41;;;;;;;0.50;0.50;;;;;;;;;;5083958;28;20255;-84
2021/10/05 14:34:08;;;;;;;1.20;0.75;;;;;;;;;;5059386;28;20266;-84
2021/10/05 14:36:41;;;;;;;3.55;1.10;;;;;;;;;;5065596;28;20126;-84
2021/10/05 14:39:08;;;;;;;2.40;1.50;;;;;;;;;;5072017;28;20058;-84
2021/10/05 14:41:35;;;;;;;1.55;1.02;;;;;;;;;;5054838;28;20201;-84
2021/10/05 14:44:02;;;;;;;3.85;0.85;;;;;;;;;;5070516;28;20176;-84
2021/10/05 14:46:29;;;;;;;1.67;0.80;;;;;;;;;;5083588;28;20113;-84
2021/10/05 14:48:57;;;;;;;3.33;0.60;;;;;;;;;;5082770;28;20494;-83
2021/10/05 14:51:23;;;;;;;2.88;1.15;;;;;;;;;;5050975;28;20053;-84
2021/10/05 14:53:50;;;;;;;1.92;1.10;;;;;;;;;;5066457;28;20062;-84
2021/10/05 14:56:17;;;;;;;4.40;2.38;;;;;;;;;;5064342;28;20135;-83
2021/10/05 14:58:44;;;;;;;3.08;2.28;;;;;;;;;;5060536;28;20049;-84
2021/10/05 15:01:12;;;;;;;3.00;2.60;;;;;;;;;;5065000;28;20044;-84
2021/10/05 15:03:39;;;;;;;2.78;1.70;;;;;;;;;;5063970;28;20181;-84
2021/10/05 15:06:05;;;;;;;6.60;1.90;;;;;;;;;;5067155;28;20098;-84
2021/10/05 15:08:32;;;;;;;2.63;1.60;;;;;;;;;;5068528;28;20269;-86
2021/10/05 15:11:01;;;;;;;2.70;0.95;;;;;;;;;;5065613;28;20044;-84
2021/10/05 15:13:29;;;;;;;1.55;0.80;;;;;;;;;;5066339;28;20267;-84
2021/10/05 15:15:59;;;;;;;1.23;1.00;;;;;;;;;;5086522;28;20107;-84